sensor_id;sensor_type;location;lat;lon;timestamp;P1;durP1;ratioP1;P2;durP2;ratioP2
22737;SDS011;11536;50.860;4.286;2024-02-23T00:00:08;1.95;;;0.25;;
22737;SDS011;11536;50.860;4.286;2024-02-23T00:02:35;1.73;;;0.40;;
22737;SDS011;11536;50.860;4.286;2024-02-23T00:05:01;1.55;;;0.30;;
22737;SDS011;11536;50.860;4.286;2024-02-23T00:07:27;1.98;;;0.35;;
22737;SDS011;11536;50.860;4.286;2024-02-23T00:09:52;5.00;;;0.50;;
22737;SDS011;11536;50.860;4.286;2024-02-23T00:12:18;1.88;;;0.20;;
22737;SDS011;11536;50.860;4.286;2024-02-23T00:14:43;4.85;;;0.35;;
22737;SDS011;11536;50.860;4.286;2024-02-23T00:17:09;1.90;;;0.63;;
22737;SDS011;11536;50.860;4.286;2024-02-23T00:19:35;4.05;;;0.60;;
22737;SDS011;11536;50.860;4.286;2024-02-23T00:22:00;3.10;;;0.20;;
22737;SDS011;11536;50.860;4.286;2024-02-23T00:24:26;2.85;;;0.32;;
22737;SDS011;11536;50.860;4.286;2024-02-23T00:26:52;3.80;;;0.30;;
22737;SDS011;11536;50.860;4.286;2024-02-23T00:29:17;3.60;;;0.25;;
22737;SDS011;11536;50.860;4.286;2024-02-23T00:31:43;1.42;;;0.20;;
22737;SDS011;11536;50.860;4.286;2024-02-23T00:34:12;4.35;;;0.20;;
22737;SDS011;11536;50.860;4.286;2024-02-23T00:36:39;1.38;;;0.15;;
22737;SDS011;11536;50.860;4.286;2024-02-23T00:39:06;0.20;;;0.10;;
22737;SDS011;11536;50.860;4.286;2024-02-23T00:41:33;3.72;;;0.20;;
22737;SDS011;11536;50.860;4.286;2024-02-23T00:43:59;1.98;;;0.20;;
22737;SDS011;11536;50.860;4.286;2024-02-23T00:46:24;2.13;;;0.40;;
22737;SDS011;11536;50.860;4.286;2024-02-23T00:48:50;2.33;;;0.10;;
22737;SDS011;11536;50.860;4.286;2024-02-23T00:51:16;2.85;;;0.20;;
22737;SDS011;11536;50.860;4.286;2024-02-23T00:53:41;2.40;;;0.30;;
22737;SDS011;11536;50.860;4.286;2024-02-23T00:56:07;4.15;;;0.30;;
22737;SDS011;11536;50.860;4.286;2024-02-23T00:58:33;4.35;;;0.10;;
22737;SDS011;11536;50.860;4.286;2024-02-23T01:00:59;2.25;;;0.22;;
22737;SDS011;11536;50.860;4.286;2024-02-23T01:03:24;1.95;;;0.20;;
22737;SDS011;11536;50.860;4.286;2024-02-23T01:05:50;2.47;;;0.28;;
22737;SDS011;11536;50.860;4.286;2024-02-23T01:08:15;1.65;;;0.63;;
22737;SDS011;11536;50.860;4.286;2024-02-23T01:10:41;4.57;;;0.30;;
22737;SDS011;11536;50.860;4.286;2024-02-23T01:13:07;1.35;;;0.25;;
22737;SDS011;11536;50.860;4.286;2024-02-23T01:15:32;2.30;;;0.28;;
22737;SDS011;11536;50.860;4.286;2024-02-23T01:17:59;3.20;;;0.30;;
22737;SDS011;11536;50.860;4.286;2024-02-23T01:20:25;1.35;;;0.30;;
22737;SDS011;11536;50.860;4.286;2024-02-23T01:22:50;2.20;;;0.73;;
22737;SDS011;11536;50.860;4.286;2024-02-23T01:25:16;2.47;;;0.32;;
22737;SDS011;11536;50.860;4.286;2024-02-23T01:27:41;2.65;;;0.40;;
22737;SDS011;11536;50.860;4.286;2024-02-23T01:30:09;4.15;;;0.38;;
22737;SDS011;11536;50.860;4.286;2024-02-23T01:32:35;1.77;;;0.20;;
22737;SDS011;11536;50.860;4.286;2024-02-23T01:35:03;1.15;;;0.15;;
22737;SDS011;11536;50.860;4.286;2024-02-23T01:37:29;6.13;;;0.40;;
22737;SDS011;11536;50.860;4.286;2024-02-23T01:39:55;3.63;;;0.30;;
22737;SDS011;11536;50.860;4.286;2024-02-23T01:42:21;4.47;;;0.40;;
22737;SDS011;11536;50.860;4.286;2024-02-23T01:44:46;2.17;;;0.20;;
22737;SDS011;11536;50.860;4.286;2024-02-23T01:47:12;6.75;;;0.50;;
22737;SDS011;11536;50.860;4.286;2024-02-23T01:49:38;4.55;;;0.40;;
22737;SDS011;11536;50.860;4.286;2024-02-23T01:52:03;4.60;;;0.60;;
22737;SDS011;11536;50.860;4.286;2024-02-23T01:54:30;5.38;;;0.32;;
22737;SDS011;11536;50.860;4.286;2024-02-23T01:56:56;3.83;;;0.47;;
22737;SDS011;11536;50.860;4.286;2024-02-23T01:59:23;2.00;;;0.20;;
22737;SDS011;11536;50.860;4.286;2024-02-23T02:01:50;5.40;;;0.68;;
22737;SDS011;11536;50.860;4.286;2024-02-23T02:04:16;2.53;;;0.40;;
22737;SDS011;11536;50.860;4.286;2024-02-23T02:06:41;3.42;;;0.40;;
22737;SDS011;11536;50.860;4.286;2024-02-23T02:09:08;2.25;;;0.47;;
22737;SDS011;11536;50.860;4.286;2024-02-23T02:11:33;2.50;;;0.38;;
22737;SDS011;11536;50.860;4.286;2024-02-23T02:14:02;2.22;;;0.40;;
22737;SDS011;11536;50.860;4.286;2024-02-23T02:16:35;1.85;;;0.47;;
22737;SDS011;11536;50.860;4.286;2024-02-23T02:19:01;1.73;;;0.52;;
22737;SDS011;11536;50.860;4.286;2024-02-23T02:21:27;3.33;;;0.60;;
22737;SDS011;11536;50.860;4.286;2024-02-23T02:23:53;4.15;;;0.40;;
22737;SDS011;11536;50.860;4.286;2024-02-23T02:26:19;4.63;;;0.55;;
22737;SDS011;11536;50.860;4.286;2024-02-23T02:28:44;3.53;;;0.60;;
22737;SDS011;11536;50.860;4.286;2024-02-23T02:31:11;3.10;;;0.63;;
22737;SDS011;11536;50.860;4.286;2024-02-23T02:33:37;4.25;;;0.40;;
22737;SDS011;11536;50.860;4.286;2024-02-23T02:36:02;6.85;;;0.57;;
22737;SDS011;11536;50.860;4.286;2024-02-23T02:38:28;3.25;;;0.30;;
22737;SDS011;11536;50.860;4.286;2024-02-23T02:40:54;2.75;;;0.50;;
22737;SDS011;11536;50.860;4.286;2024-02-23T02:43:19;2.25;;;0.65;;
22737;SDS011;11536;50.860;4.286;2024-02-23T02:45:45;4.72;;;0.60;;
22737;SDS011;11536;50.860;4.286;2024-02-23T02:48:11;6.15;;;0.50;;
22737;SDS011;11536;50.860;4.286;2024-02-23T02:50:37;6.57;;;0.60;;
22737;SDS011;11536;50.860;4.286;2024-02-23T02:53:02;4.05;;;0.98;;
22737;SDS011;11536;50.860;4.286;2024-02-23T02:55:28;3.55;;;0.50;;
22737;SDS011;11536;50.860;4.286;2024-02-23T02:57:54;4.93;;;0.50;;
22737;SDS011;11536;50.860;4.286;2024-02-23T03:00:19;3.95;;;0.52;;
22737;SDS011;11536;50.860;4.286;2024-02-23T03:02:45;2.88;;;0.50;;
22737;SDS011;11536;50.860;4.286;2024-02-23T03:05:10;4.57;;;0.50;;
22737;SDS011;11536;50.860;4.286;2024-02-23T03:07:36;2.90;;;0.40;;
22737;SDS011;11536;50.860;4.286;2024-02-23T03:10:02;1.92;;;0.40;;
22737;SDS011;11536;50.860;4.286;2024-02-23T03:12:27;4.05;;;0.70;;
22737;SDS011;11536;50.860;4.286;2024-02-23T03:14:53;2.78;;;0.40;;
22737;SDS011;11536;50.860;4.286;2024-02-23T03:17:20;2.92;;;0.50;;
22737;SDS011;11536;50.860;4.286;2024-02-23T03:19:46;3.63;;;0.55;;
22737;SDS011;11536;50.860;4.286;2024-02-23T03:22:12;3.90;;;0.57;;
22737;SDS011;11536;50.860;4.286;2024-02-23T03:24:37;2.67;;;0.65;;
22737;SDS011;11536;50.860;4.286;2024-02-23T03:27:03;1.70;;;0.30;;
22737;SDS011;11536;50.860;4.286;2024-02-23T03:29:28;3.83;;;0.45;;
22737;SDS011;11536;50.860;4.286;2024-02-23T03:31:55;5.38;;;0.40;;
22737;SDS011;11536;50.860;4.286;2024-02-23T03:34:21;3.28;;;0.60;;
22737;SDS011;11536;50.860;4.286;2024-02-23T03:36:46;3.17;;;0.55;;
22737;SDS011;11536;50.860;4.286;2024-02-23T03:39:12;4.63;;;0.93;;
22737;SDS011;11536;50.860;4.286;2024-02-23T03:41:38;3.88;;;0.30;;
22737;SDS011;11536;50.860;4.286;2024-02-23T03:44:04;7.65;;;0.57;;
22737;SDS011;11536;50.860;4.286;2024-02-23T03:46:30;6.85;;;1.08;;
22737;SDS011;11536;50.860;4.286;2024-02-23T03:48:56;4.95;;;0.50;;
22737;SDS011;11536;50.860;4.286;2024-02-23T03:51:22;4.00;;;0.40;;
22737;SDS011;11536;50.860;4.286;2024-02-23T03:53:48;2.95;;;0.57;;
22737;SDS011;11536;50.860;4.286;2024-02-23T03:56:14;8.18;;;0.60;;
22737;SDS011;11536;50.860;4.286;2024-02-23T03:58:40;6.78;;;0.82;;
22737;SDS011;11536;50.860;4.286;2024-02-23T04:01:06;6.93;;;0.68;;
22737;SDS011;11536;50.860;4.286;2024-02-23T04:03:31;5.15;;;0.63;;
22737;SDS011;11536;50.860;4.286;2024-02-23T04:05:57;2.17;;;0.45;;
22737;SDS011;11536;50.860;4.286;2024-02-23T04:08:23;5.78;;;0.50;;
22737;SDS011;11536;50.860;4.286;2024-02-23T04:10:48;6.80;;;0.50;;
22737;SDS011;11536;50.860;4.286;2024-02-23T04:13:14;4.28;;;0.70;;
22737;SDS011;11536;50.860;4.286;2024-02-23T04:15:40;7.20;;;1.05;;
22737;SDS011;11536;50.860;4.286;2024-02-23T04:18:06;5.03;;;0.50;;
22737;SDS011;11536;50.860;4.286;2024-02-23T04:20:31;3.95;;;0.57;;
22737;SDS011;11536;50.860;4.286;2024-02-23T04:22:58;4.80;;;0.75;;
22737;SDS011;11536;50.860;4.286;2024-02-23T04:25:23;3.53;;;0.60;;
22737;SDS011;11536;50.860;4.286;2024-02-23T04:27:49;5.70;;;0.68;;
22737;SDS011;11536;50.860;4.286;2024-02-23T04:30:14;3.42;;;0.55;;
22737;SDS011;11536;50.860;4.286;2024-02-23T04:32:40;8.27;;;0.40;;
22737;SDS011;11536;50.860;4.286;2024-02-23T04:35:06;2.67;;;0.60;;
22737;SDS011;11536;50.860;4.286;2024-02-23T04:37:32;4.50;;;0.65;;
22737;SDS011;11536;50.860;4.286;2024-02-23T04:39:58;4.80;;;0.60;;
22737;SDS011;11536;50.860;4.286;2024-02-23T04:42:24;5.05;;;0.60;;
22737;SDS011;11536;50.860;4.286;2024-02-23T04:44:49;7.03;;;0.70;;
22737;SDS011;11536;50.860;4.286;2024-02-23T04:47:15;4.53;;;0.80;;
22737;SDS011;11536;50.860;4.286;2024-02-23T04:49:40;4.10;;;0.40;;
22737;SDS011;11536;50.860;4.286;2024-02-23T04:52:07;2.65;;;0.60;;
22737;SDS011;11536;50.860;4.286;2024-02-23T04:54:33;4.60;;;0.65;;
22737;SDS011;11536;50.860;4.286;2024-02-23T04:57:00;7.10;;;0.57;;
22737;SDS011;11536;50.860;4.286;2024-02-23T04:59:25;3.35;;;0.75;;
22737;SDS011;11536;50.860;4.286;2024-02-23T05:01:51;3.00;;;0.55;;
22737;SDS011;11536;50.860;4.286;2024-02-23T05:04:17;6.75;;;0.85;;
22737;SDS011;11536;50.860;4.286;2024-02-23T05:06:42;4.25;;;0.60;;
22737;SDS011;11536;50.860;4.286;2024-02-23T05:09:08;4.25;;;1.02;;
22737;SDS011;11536;50.860;4.286;2024-02-23T05:11:34;4.45;;;0.60;;
22737;SDS011;11536;50.860;4.286;2024-02-23T05:14:00;4.15;;;0.60;;
22737;SDS011;11536;50.860;4.286;2024-02-23T05:16:26;3.65;;;0.63;;
22737;SDS011;11536;50.860;4.286;2024-02-23T05:18:51;2.90;;;0.70;;
22737;SDS011;11536;50.860;4.286;2024-02-23T05:21:17;7.75;;;0.82;;
22737;SDS011;11536;50.860;4.286;2024-02-23T05:23:42;6.20;;;1.20;;
22737;SDS011;11536;50.860;4.286;2024-02-23T05:26:08;4.88;;;1.20;;
22737;SDS011;11536;50.860;4.286;2024-02-23T05:28:34;5.70;;;0.88;;
22737;SDS011;11536;50.860;4.286;2024-02-23T05:31:01;8.27;;;1.60;;
22737;SDS011;11536;50.860;4.286;2024-02-23T05:33:28;6.03;;;1.10;;
22737;SDS011;11536;50.860;4.286;2024-02-23T05:35:54;7.47;;;1.48;;
22737;SDS011;11536;50.860;4.286;2024-02-23T05:38:20;7.18;;;0.93;;
22737;SDS011;11536;50.860;4.286;2024-02-23T05:40:45;7.88;;;1.00;;
22737;SDS011;11536;50.860;4.286;2024-02-23T05:43:11;4.07;;;0.70;;
22737;SDS011;11536;50.860;4.286;2024-02-23T05:45:36;5.10;;;1.00;;
22737;SDS011;11536;50.860;4.286;2024-02-23T05:48:02;2.65;;;0.75;;
22737;SDS011;11536;50.860;4.286;2024-02-23T05:50:28;5.93;;;1.15;;
22737;SDS011;11536;50.860;4.286;2024-02-23T05:52:54;6.38;;;1.00;;
22737;SDS011;11536;50.860;4.286;2024-02-23T05:55:19;5.45;;;0.82;;
22737;SDS011;11536;50.860;4.286;2024-02-23T05:57:45;6.03;;;0.93;;
22737;SDS011;11536;50.860;4.286;2024-02-23T06:00:11;4.70;;;0.80;;
22737;SDS011;11536;50.860;4.286;2024-02-23T06:02:37;2.30;;;0.50;;
22737;SDS011;11536;50.860;4.286;2024-02-23T06:05:04;3.60;;;0.77;;
22737;SDS011;11536;50.860;4.286;2024-02-23T06:07:32;6.00;;;0.90;;
22737;SDS011;11536;50.860;4.286;2024-02-23T06:09:58;4.15;;;0.80;;
22737;SDS011;11536;50.860;4.286;2024-02-23T06:12:24;6.05;;;0.80;;
22737;SDS011;11536;50.860;4.286;2024-02-23T06:14:50;5.90;;;1.10;;
22737;SDS011;11536;50.860;4.286;2024-02-23T06:17:21;5.43;;;0.80;;
22737;SDS011;11536;50.860;4.286;2024-02-23T06:19:48;7.82;;;0.90;;
22737;SDS011;11536;50.860;4.286;2024-02-23T06:22:13;6.10;;;0.70;;
22737;SDS011;11536;50.860;4.286;2024-02-23T06:24:42;5.65;;;0.68;;
22737;SDS011;11536;50.860;4.286;2024-02-23T06:27:07;5.20;;;0.80;;
22737;SDS011;11536;50.860;4.286;2024-02-23T06:29:33;6.28;;;0.65;;
22737;SDS011;11536;50.860;4.286;2024-02-23T06:31:59;3.65;;;0.85;;
22737;SDS011;11536;50.860;4.286;2024-02-23T06:34:27;7.75;;;0.77;;
22737;SDS011;11536;50.860;4.286;2024-02-23T06:36:53;6.65;;;0.90;;
22737;SDS011;11536;50.860;4.286;2024-02-23T06:39:19;8.73;;;0.82;;
22737;SDS011;11536;50.860;4.286;2024-02-23T06:41:45;8.95;;;1.15;;
22737;SDS011;11536;50.860;4.286;2024-02-23T06:44:10;4.20;;;0.70;;
22737;SDS011;11536;50.860;4.286;2024-02-23T06:46:36;4.45;;;0.60;;
22737;SDS011;11536;50.860;4.286;2024-02-23T06:49:02;6.40;;;0.63;;
22737;SDS011;11536;50.860;4.286;2024-02-23T06:51:29;6.60;;;0.90;;
22737;SDS011;11536;50.860;4.286;2024-02-23T06:53:56;6.78;;;0.88;;
22737;SDS011;11536;50.860;4.286;2024-02-23T06:56:21;3.88;;;1.02;;
22737;SDS011;11536;50.860;4.286;2024-02-23T06:58:47;6.65;;;0.75;;
22737;SDS011;11536;50.860;4.286;2024-02-23T07:01:13;4.93;;;0.93;;
22737;SDS011;11536;50.860;4.286;2024-02-23T07:03:39;2.90;;;0.73;;
22737;SDS011;11536;50.860;4.286;2024-02-23T07:06:07;4.60;;;0.65;;
22737;SDS011;11536;50.860;4.286;2024-02-23T07:08:35;4.57;;;0.60;;
22737;SDS011;11536;50.860;4.286;2024-02-23T07:11:00;3.38;;;0.60;;
22737;SDS011;11536;50.860;4.286;2024-02-23T07:13:26;4.78;;;1.27;;
22737;SDS011;11536;50.860;4.286;2024-02-23T07:15:52;3.80;;;0.73;;
22737;SDS011;11536;50.860;4.286;2024-02-23T07:18:17;5.15;;;0.90;;
22737;SDS011;11536;50.860;4.286;2024-02-23T07:20:43;4.95;;;0.65;;
22737;SDS011;11536;50.860;4.286;2024-02-23T07:23:08;6.10;;;1.02;;
22737;SDS011;11536;50.860;4.286;2024-02-23T07:25:34;11.27;;;1.75;;
22737;SDS011;11536;50.860;4.286;2024-02-23T07:28:00;7.85;;;1.00;;
22737;SDS011;11536;50.860;4.286;2024-02-23T07:30:25;5.10;;;0.80;;
22737;SDS011;11536;50.860;4.286;2024-02-23T07:32:51;8.98;;;1.00;;
22737;SDS011;11536;50.860;4.286;2024-02-23T07:35:17;7.15;;;1.17;;
22737;SDS011;11536;50.860;4.286;2024-02-23T07:37:43;5.30;;;0.55;;
22737;SDS011;11536;50.860;4.286;2024-02-23T07:40:09;4.30;;;0.68;;
22737;SDS011;11536;50.860;4.286;2024-02-23T07:42:35;6.10;;;0.93;;
22737;SDS011;11536;50.860;4.286;2024-02-23T07:45:02;8.15;;;0.80;;
22737;SDS011;11536;50.860;4.286;2024-02-23T07:47:29;3.78;;;0.70;;
22737;SDS011;11536;50.860;4.286;2024-02-23T07:49:55;9.70;;;0.90;;
22737;SDS011;11536;50.860;4.286;2024-02-23T07:52:21;4.13;;;0.80;;
22737;SDS011;11536;50.860;4.286;2024-02-23T07:54:49;9.05;;;0.85;;
22737;SDS011;11536;50.860;4.286;2024-02-23T07:57:16;4.43;;;0.52;;
22737;SDS011;11536;50.860;4.286;2024-02-23T07:59:42;8.50;;;1.05;;
22737;SDS011;11536;50.860;4.286;2024-02-23T08:02:08;5.25;;;0.60;;
22737;SDS011;11536;50.860;4.286;2024-02-23T08:04:34;4.43;;;0.65;;
22737;SDS011;11536;50.860;4.286;2024-02-23T08:06:59;6.97;;;1.00;;
22737;SDS011;11536;50.860;4.286;2024-02-23T08:09:25;6.53;;;0.98;;
22737;SDS011;11536;50.860;4.286;2024-02-23T08:11:50;5.10;;;0.50;;
22737;SDS011;11536;50.860;4.286;2024-02-23T08:14:16;11.30;;;1.50;;
22737;SDS011;11536;50.860;4.286;2024-02-23T08:16:42;5.65;;;1.00;;
22737;SDS011;11536;50.860;4.286;2024-02-23T08:19:07;5.00;;;1.02;;
22737;SDS011;11536;50.860;4.286;2024-02-23T08:21:33;4.20;;;0.60;;
22737;SDS011;11536;50.860;4.286;2024-02-23T08:23:58;6.32;;;1.13;;
22737;SDS011;11536;50.860;4.286;2024-02-23T08:26:24;4.60;;;0.60;;
22737;SDS011;11536;50.860;4.286;2024-02-23T08:28:50;7.50;;;1.05;;
22737;SDS011;11536;50.860;4.286;2024-02-23T08:31:15;5.47;;;1.35;;
22737;SDS011;11536;50.860;4.286;2024-02-23T08:33:41;5.57;;;1.02;;
22737;SDS011;11536;50.860;4.286;2024-02-23T08:36:07;6.78;;;1.10;;
22737;SDS011;11536;50.860;4.286;2024-02-23T08:38:33;4.38;;;0.60;;
22737;SDS011;11536;50.860;4.286;2024-02-23T08:40:58;4.55;;;0.93;;
22737;SDS011;11536;50.860;4.286;2024-02-23T08:43:24;6.10;;;0.90;;
22737;SDS011;11536;50.860;4.286;2024-02-23T08:45:50;7.97;;;1.48;;
22737;SDS011;11536;50.860;4.286;2024-02-23T08:48:16;5.28;;;0.80;;
22737;SDS011;11536;50.860;4.286;2024-02-23T08:50:41;5.68;;;0.73;;
22737;SDS011;11536;50.860;4.286;2024-02-23T08:53:07;6.45;;;1.00;;
22737;SDS011;11536;50.860;4.286;2024-02-23T08:55:33;6.15;;;0.88;;
22737;SDS011;11536;50.860;4.286;2024-02-23T08:57:58;8.52;;;0.88;;
22737;SDS011;11536;50.860;4.286;2024-02-23T09:00:24;5.95;;;0.88;;
22737;SDS011;11536;50.860;4.286;2024-02-23T09:02:50;5.15;;;0.88;;
22737;SDS011;11536;50.860;4.286;2024-02-23T09:05:15;5.40;;;0.88;;
22737;SDS011;11536;50.860;4.286;2024-02-23T09:07:41;5.82;;;1.13;;
22737;SDS011;11536;50.860;4.286;2024-02-23T09:10:07;4.93;;;1.25;;
22737;SDS011;11536;50.860;4.286;2024-02-23T09:12:33;8.80;;;0.85;;
22737;SDS011;11536;50.860;4.286;2024-02-23T09:14:59;3.83;;;1.00;;
22737;SDS011;11536;50.860;4.286;2024-02-23T09:17:25;8.45;;;1.20;;
22737;SDS011;11536;50.860;4.286;2024-02-23T09:19:50;9.18;;;1.02;;
22737;SDS011;11536;50.860;4.286;2024-02-23T09:22:16;3.75;;;0.70;;
22737;SDS011;11536;50.860;4.286;2024-02-23T09:24:42;4.70;;;1.27;;
22737;SDS011;11536;50.860;4.286;2024-02-23T09:27:08;5.78;;;1.38;;
22737;SDS011;11536;50.860;4.286;2024-02-23T09:29:34;7.68;;;1.08;;
22737;SDS011;11536;50.860;4.286;2024-02-23T09:32:00;9.00;;;0.98;;
22737;SDS011;11536;50.860;4.286;2024-02-23T09:34:26;4.93;;;1.00;;
22737;SDS011;11536;50.860;4.286;2024-02-23T09:36:52;5.35;;;1.45;;
22737;SDS011;11536;50.860;4.286;2024-02-23T09:39:17;7.00;;;1.30;;
22737;SDS011;11536;50.860;4.286;2024-02-23T09:41:43;8.75;;;0.90;;
22737;SDS011;11536;50.860;4.286;2024-02-23T09:44:09;6.43;;;1.42;;
22737;SDS011;11536;50.860;4.286;2024-02-23T09:46:36;5.78;;;0.90;;
22737;SDS011;11536;50.860;4.286;2024-02-23T09:49:03;4.15;;;0.88;;
22737;SDS011;11536;50.860;4.286;2024-02-23T09:51:31;8.65;;;0.90;;
22737;SDS011;11536;50.860;4.286;2024-02-23T09:53:58;6.45;;;0.77;;
22737;SDS011;11536;50.860;4.286;2024-02-23T09:56:25;4.00;;;0.70;;
22737;SDS011;11536;50.860;4.286;2024-02-23T09:58:55;4.43;;;0.90;;
22737;SDS011;11536;50.860;4.286;2024-02-23T10:01:24;3.88;;;0.60;;
22737;SDS011;11536;50.860;4.286;2024-02-23T10:03:55;4.82;;;0.63;;
22737;SDS011;11536;50.860;4.286;2024-02-23T10:06:31;4.55;;;0.40;;
22737;SDS011;11536;50.860;4.286;2024-02-23T10:08:57;4.50;;;0.57;;
22737;SDS011;11536;50.860;4.286;2024-02-23T10:11:23;4.85;;;0.60;;
22737;SDS011;11536;50.860;4.286;2024-02-23T10:13:50;4.22;;;1.00;;
22737;SDS011;11536;50.860;4.286;2024-02-23T10:16:19;5.55;;;0.65;;
22737;SDS011;11536;50.860;4.286;2024-02-23T10:18:46;5.80;;;0.55;;
22737;SDS011;11536;50.860;4.286;2024-02-23T10:21:13;4.38;;;0.60;;
22737;SDS011;11536;50.860;4.286;2024-02-23T10:23:40;3.08;;;0.73;;
22737;SDS011;11536;50.860;4.286;2024-02-23T10:26:06;6.45;;;1.05;;
22737;SDS011;11536;50.860;4.286;2024-02-23T10:28:34;3.95;;;0.50;;
22737;SDS011;11536;50.860;4.286;2024-02-23T10:31:02;4.22;;;0.70;;
22737;SDS011;11536;50.860;4.286;2024-02-23T10:33:28;2.63;;;0.40;;
22737;SDS011;11536;50.860;4.286;2024-02-23T10:35:56;3.13;;;0.50;;
22737;SDS011;11536;50.860;4.286;2024-02-23T10:38:23;6.10;;;0.70;;
22737;SDS011;11536;50.860;4.286;2024-02-23T10:40:50;3.15;;;0.60;;
22737;SDS011;11536;50.860;4.286;2024-02-23T10:43:19;9.40;;;1.65;;
22737;SDS011;11536;50.860;4.286;2024-02-23T10:45:49;8.70;;;0.90;;
22737;SDS011;11536;50.860;4.286;2024-02-23T10:48:16;2.95;;;0.68;;
22737;SDS011;11536;50.860;4.286;2024-02-23T10:50:42;3.53;;;0.43;;
22737;SDS011;11536;50.860;4.286;2024-02-23T10:53:09;3.00;;;0.70;;
22737;SDS011;11536;50.860;4.286;2024-02-23T10:55:36;7.72;;;0.82;;
22737;SDS011;11536;50.860;4.286;2024-02-23T10:58:03;5.15;;;0.85;;
22737;SDS011;11536;50.860;4.286;2024-02-23T11:00:36;3.78;;;0.50;;
22737;SDS011;11536;50.860;4.286;2024-02-23T11:03:02;5.18;;;0.70;;
22737;SDS011;11536;50.860;4.286;2024-02-23T11:05:28;5.47;;;0.60;;
22737;SDS011;11536;50.860;4.286;2024-02-23T11:07:58;4.65;;;0.80;;
22737;SDS011;11536;50.860;4.286;2024-02-23T11:10:24;6.30;;;0.40;;
22737;SDS011;11536;50.860;4.286;2024-02-23T11:13:02;9.05;;;0.82;;
22737;SDS011;11536;50.860;4.286;2024-02-23T11:15:33;2.70;;;0.45;;
22737;SDS011;11536;50.860;4.286;2024-02-23T11:18:04;7.57;;;0.60;;
22737;SDS011;11536;50.860;4.286;2024-02-23T11:20:52;4.32;;;0.82;;
22737;SDS011;11536;50.860;4.286;2024-02-23T11:26:04;2.53;;;0.45;;
22737;SDS011;11536;50.860;4.286;2024-02-23T11:28:32;3.15;;;0.40;;
22737;SDS011;11536;50.860;4.286;2024-02-23T11:30:57;6.28;;;0.50;;
22737;SDS011;11536;50.860;4.286;2024-02-23T11:33:28;7.60;;;1.00;;
22737;SDS011;11536;50.860;4.286;2024-02-23T11:36:04;2.70;;;0.57;;
22737;SDS011;11536;50.860;4.286;2024-02-23T11:38:33;4.70;;;1.45;;
22737;SDS011;11536;50.860;4.286;2024-02-23T11:41:00;5.78;;;1.42;;
22737;SDS011;11536;50.860;4.286;2024-02-23T11:43:27;3.13;;;0.40;;
22737;SDS011;11536;50.860;4.286;2024-02-23T11:45:53;4.78;;;0.50;;
22737;SDS011;11536;50.860;4.286;2024-02-23T11:48:18;2.25;;;0.43;;
22737;SDS011;11536;50.860;4.286;2024-02-23T11:50:44;2.15;;;0.52;;
22737;SDS011;11536;50.860;4.286;2024-02-23T11:53:10;7.65;;;0.60;;
22737;SDS011;11536;50.860;4.286;2024-02-23T11:55:36;4.38;;;0.47;;
22737;SDS011;11536;50.860;4.286;2024-02-23T11:58:02;3.80;;;0.60;;
22737;SDS011;11536;50.860;4.286;2024-02-23T12:00:28;3.13;;;0.55;;
22737;SDS011;11536;50.860;4.286;2024-02-23T12:02:55;2.67;;;0.30;;
22737;SDS011;11536;50.860;4.286;2024-02-23T12:05:21;5.70;;;0.65;;
22737;SDS011;11536;50.860;4.286;2024-02-23T12:07:47;2.33;;;0.57;;
22737;SDS011;11536;50.860;4.286;2024-02-23T12:10:12;3.58;;;0.40;;
22737;SDS011;11536;50.860;4.286;2024-02-23T12:12:38;4.25;;;0.50;;
22737;SDS011;11536;50.860;4.286;2024-02-23T12:15:05;3.97;;;0.60;;
22737;SDS011;11536;50.860;4.286;2024-02-23T12:17:31;6.00;;;0.60;;
22737;SDS011;11536;50.860;4.286;2024-02-23T12:20:00;4.05;;;0.40;;
22737;SDS011;11536;50.860;4.286;2024-02-23T12:22:26;2.63;;;0.50;;
22737;SDS011;11536;50.860;4.286;2024-02-23T12:24:52;5.20;;;0.55;;
22737;SDS011;11536;50.860;4.286;2024-02-23T12:27:18;3.05;;;0.40;;
22737;SDS011;11536;50.860;4.286;2024-02-23T12:29:54;3.08;;;0.60;;
22737;SDS011;11536;50.860;4.286;2024-02-23T12:32:20;3.78;;;0.30;;
22737;SDS011;11536;50.860;4.286;2024-02-23T12:34:46;4.63;;;0.43;;
22737;SDS011;11536;50.860;4.286;2024-02-23T12:37:15;5.40;;;0.85;;
22737;SDS011;11536;50.860;4.286;2024-02-23T12:39:42;3.08;;;0.52;;
22737;SDS011;11536;50.860;4.286;2024-02-23T12:42:08;3.85;;;0.30;;
22737;SDS011;11536;50.860;4.286;2024-02-23T12:44:34;2.95;;;0.43;;
22737;SDS011;11536;50.860;4.286;2024-02-23T12:47:00;5.90;;;0.50;;
22737;SDS011;11536;50.860;4.286;2024-02-23T12:49:26;5.63;;;0.40;;
22737;SDS011;11536;50.860;4.286;2024-02-23T12:51:51;3.25;;;0.40;;
22737;SDS011;11536;50.860;4.286;2024-02-23T12:54:17;2.42;;;0.40;;
22737;SDS011;11536;50.860;4.286;2024-02-23T12:56:42;7.20;;;0.60;;
22737;SDS011;11536;50.860;4.286;2024-02-23T12:59:08;3.35;;;0.82;;
22737;SDS011;11536;50.860;4.286;2024-02-23T13:01:34;4.30;;;0.65;;
22737;SDS011;11536;50.860;4.286;2024-02-23T13:04:02;3.10;;;0.73;;
22737;SDS011;11536;50.860;4.286;2024-02-23T13:06:28;6.03;;;0.82;;
22737;SDS011;11536;50.860;4.286;2024-02-23T13:08:54;5.05;;;0.70;;
22737;SDS011;11536;50.860;4.286;2024-02-23T13:11:19;7.80;;;1.05;;
22737;SDS011;11536;50.860;4.286;2024-02-23T13:13:45;7.03;;;1.00;;
22737;SDS011;11536;50.860;4.286;2024-02-23T13:16:11;4.78;;;0.85;;
22737;SDS011;11536;50.860;4.286;2024-02-23T13:18:39;4.13;;;0.60;;
22737;SDS011;11536;50.860;4.286;2024-02-23T13:21:05;6.38;;;1.10;;
22737;SDS011;11536;50.860;4.286;2024-02-23T13:23:30;5.45;;;1.15;;
22737;SDS011;11536;50.860;4.286;2024-02-23T13:25:56;6.72;;;1.33;;
22737;SDS011;11536;50.860;4.286;2024-02-23T13:28:22;7.97;;;1.60;;
22737;SDS011;11536;50.860;4.286;2024-02-23T13:30:47;6.50;;;1.38;;
22737;SDS011;11536;50.860;4.286;2024-02-23T13:33:13;5.13;;;1.25;;
22737;SDS011;11536;50.860;4.286;2024-02-23T13:35:39;7.40;;;1.13;;
22737;SDS011;11536;50.860;4.286;2024-02-23T13:38:05;5.13;;;0.80;;
22737;SDS011;11536;50.860;4.286;2024-02-23T13:40:31;3.15;;;0.82;;
22737;SDS011;11536;50.860;4.286;2024-02-23T13:42:57;4.63;;;0.73;;
22737;SDS011;11536;50.860;4.286;2024-02-23T13:45:23;4.43;;;0.90;;
22737;SDS011;11536;50.860;4.286;2024-02-23T13:47:57;7.82;;;1.40;;
22737;SDS011;11536;50.860;4.286;2024-02-23T13:50:24;7.05;;;1.02;;
22737;SDS011;11536;50.860;4.286;2024-02-23T13:52:50;4.88;;;0.80;;
22737;SDS011;11536;50.860;4.286;2024-02-23T13:55:17;2.85;;;0.55;;
22737;SDS011;11536;50.860;4.286;2024-02-23T13:57:42;4.82;;;0.82;;
22737;SDS011;11536;50.860;4.286;2024-02-23T14:00:08;4.18;;;1.08;;
22737;SDS011;11536;50.860;4.286;2024-02-23T14:02:37;4.40;;;0.70;;
22737;SDS011;11536;50.860;4.286;2024-02-23T14:05:05;7.28;;;1.00;;
22737;SDS011;11536;50.860;4.286;2024-02-23T14:07:32;8.43;;;1.40;;
22737;SDS011;11536;50.860;4.286;2024-02-23T14:09:58;4.53;;;0.90;;
22737;SDS011;11536;50.860;4.286;2024-02-23T14:12:24;5.30;;;1.30;;
22737;SDS011;11536;50.860;4.286;2024-02-23T14:14:49;8.18;;;1.52;;
22737;SDS011;11536;50.860;4.286;2024-02-23T14:17:15;3.90;;;1.02;;
22737;SDS011;11536;50.860;4.286;2024-02-23T14:19:41;4.40;;;1.00;;
22737;SDS011;11536;50.860;4.286;2024-02-23T14:22:06;6.97;;;0.88;;
22737;SDS011;11536;50.860;4.286;2024-02-23T14:24:32;6.82;;;0.90;;
22737;SDS011;11536;50.860;4.286;2024-02-23T14:26:57;6.70;;;0.93;;
22737;SDS011;11536;50.860;4.286;2024-02-23T14:29:23;3.97;;;0.82;;
22737;SDS011;11536;50.860;4.286;2024-02-23T14:31:49;7.85;;;0.98;;
22737;SDS011;11536;50.860;4.286;2024-02-23T14:34:14;4.93;;;0.93;;
22737;SDS011;11536;50.860;4.286;2024-02-23T14:36:40;4.82;;;0.82;;
22737;SDS011;11536;50.860;4.286;2024-02-23T14:39:05;5.07;;;1.20;;
22737;SDS011;11536;50.860;4.286;2024-02-23T14:41:33;6.28;;;1.25;;
22737;SDS011;11536;50.860;4.286;2024-02-23T14:43:58;5.50;;;1.77;;